To NAV CANADA Home Page Login to a new session Search on AWWS site Feedback and Comments Disclaimer Vers la page française équivalente Tips FAQ What's new on the site To the Forecasts and Observations / NOTAM section To "File a Flight Plan" website Publications and other links Update of the User's profile FIC Telephone Numbers My Weather Data Folder Route Weather Data Regional Weather Data Local Weather Data To the Forecasts and Observations / NOTAM section
Request Generated 03/23/2017 at 00:13:33 UTC . Weather information available at that time is displayed.

METAR/TAF

SAINT JOHN/NB    

METAR CYSJ 230000Z 34029G38KT 2 1/2SM -SN BLSN SCT012 OVC024 M07/M09
A2968 RMK SC4SC4 /S01/ SLP057=
SPECI CYSJ 222331Z 34023G36KT 2 1/2SM -SN BLSN SCT015 BKN056 M06/M09
A2966 RMK SC3SC4 SLP051=
METAR CYSJ 222300Z 34021G28KT 10SM -SN DRSN FEW015 BKN062 M06/M09
A2965 RMK SC2SC3 SLP046=
METAR CYSJ 222200Z 34023G30KT 3SM -SN DRSN BKN013 OVC032 M04/M06
A2961 RMK SC5SC3 SLP035=

TAF CYSJ 222338Z 2300/2312 34020G30KT P6SM -SN FEW015 OVC060 TEMPO
2300/2308 2SM -SN BLSN OVC015
FM230800 34020G30KT P6SM BKN030
BECMG 2310/2312 SCT030
RMK NXT FCST BY 230600Z=
Your time UTC time
Weather data provided by Environment Canada and NAV CANADA